createdAt,value
2016-11-19T00:00:31.927Z,0
2016-11-19T00:01:31.921Z,0
2016-11-19T00:02:32.210Z,0
2016-11-19T00:03:32.210Z,0
2016-11-19T00:04:32.185Z,0
2016-11-19T00:05:31.866Z,0
2016-11-19T00:06:31.863Z,0
2016-11-19T00:07:31.867Z,0
2016-11-19T00:08:31.842Z,0
2016-11-19T00:09:31.819Z,0
2016-11-19T00:10:31.813Z,0
2016-11-19T00:11:32.112Z,0
2016-11-19T00:12:32.095Z,0
2016-11-19T00:13:32.087Z,0
2016-11-19T00:14:31.768Z,0
2016-11-19T00:15:31.758Z,0
2016-11-19T00:16:31.756Z,0
2016-11-19T00:17:32.036Z,0
2016-11-19T00:18:31.725Z,0
2016-11-19T00:19:31.713Z,0
2016-11-19T00:20:31.706Z,0
2016-11-19T00:21:31.695Z,0
2016-11-19T00:22:31.686Z,0
2016-11-19T00:23:31.680Z,0
2016-11-19T00:24:31.658Z,0
2016-11-19T00:25:31.662Z,0
2016-11-19T00:26:31.669Z,0
2016-11-19T00:27:31.628Z,0
2016-11-19T00:28:31.623Z,0
2016-11-19T00:29:41.867Z,0
2016-11-19T00:30:31.583Z,0
2016-11-19T00:31:31.571Z,0
2016-11-19T00:32:31.558Z,0
2016-11-19T00:33:31.549Z,0
2016-11-19T00:34:31.565Z,0
2016-11-19T00:35:31.523Z,0
2016-11-19T00:36:31.513Z,0
2016-11-19T00:37:31.507Z,0
2016-11-19T00:38:31.795Z,0
2016-11-19T00:39:31.481Z,0
2016-11-19T00:40:31.477Z,0
2016-11-19T00:41:31.461Z,0
2016-11-19T00:42:31.457Z,0
2016-11-19T00:43:31.441Z,0
2016-11-19T00:44:31.428Z,0
2016-11-19T00:45:31.720Z,0
2016-11-19T00:46:31.715Z,0
2016-11-19T00:47:31.417Z,0
2016-11-19T00:48:31.409Z,0
2016-11-19T00:49:31.386Z,0
2016-11-19T00:50:31.374Z,0
2016-11-19T00:51:31.366Z,0
2016-11-19T00:52:31.351Z,0
2016-11-19T00:53:31.340Z,0
2016-11-19T00:54:31.327Z,0
2016-11-19T00:55:31.319Z,0
2016-11-19T00:56:31.315Z,0
2016-11-19T00:57:31.297Z,0
2016-11-19T00:58:31.289Z,0
2016-11-19T00:59:31.275Z,0
2016-11-19T01:00:31.264Z,0
2016-11-19T01:01:31.253Z,0
2016-11-19T01:02:31.246Z,0
2016-11-19T01:03:31.231Z,0
2016-11-19T01:04:31.218Z,0
2016-11-19T01:05:31.240Z,0
2016-11-19T01:06:31.507Z,0
2016-11-19T01:07:31.189Z,0
2016-11-19T01:08:31.202Z,0
2016-11-19T01:09:31.167Z,0
2016-11-19T01:10:31.161Z,0
2016-11-19T01:11:31.453Z,0
2016-11-19T01:12:31.140Z,0
2016-11-19T01:13:31.122Z,0
2016-11-19T01:14:31.110Z,0
2016-11-19T01:15:31.102Z,0
2016-11-19T01:16:31.108Z,0
2016-11-19T01:17:31.078Z,0
2016-11-19T01:18:31.064Z,0
2016-11-19T01:19:31.061Z,0
2016-11-19T01:20:31.053Z,0
2016-11-19T01:21:31.036Z,0
2016-11-19T01:22:31.017Z,0
2016-11-19T01:23:31.008Z,0
2016-11-19T01:24:31.004Z,0
2016-11-19T01:25:30.986Z,0
2016-11-19T01:26:30.982Z,0
2016-11-19T01:27:30.967Z,0
2016-11-19T01:28:30.954Z,0
2016-11-19T01:29:30.950Z,0
2016-11-19T01:30:31.239Z,0
2016-11-19T01:31:30.928Z,0
2016-11-19T01:32:30.912Z,0
2016-11-19T01:33:30.901Z,0
2016-11-19T01:34:30.890Z,0
2016-11-19T01:35:30.878Z,0
2016-11-19T01:36:30.873Z,0
2016-11-19T01:37:30.854Z,0
2016-11-19T01:38:30.843Z,0
2016-11-19T01:39:30.831Z,0
2016-11-19T01:40:30.827Z,0
2016-11-19T01:41:30.849Z,0
2016-11-19T01:42:30.801Z,0
2016-11-19T01:43:30.798Z,0
2016-11-19T01:44:30.778Z,0
2016-11-19T01:45:30.765Z,0
2016-11-19T01:46:30.750Z,0
2016-11-19T01:47:30.749Z,0
2016-11-19T01:48:30.736Z,0
2016-11-19T01:49:30.720Z,0
2016-11-19T01:50:30.716Z,0
2016-11-19T01:51:30.706Z,0
2016-11-19T01:52:30.695Z,0
2016-11-19T01:53:30.685Z,0
2016-11-19T01:54:30.676Z,0
2016-11-19T01:55:30.655Z,0
2016-11-19T01:56:31.000Z,0
2016-11-19T01:57:30.953Z,0
2016-11-19T01:58:30.634Z,0
2016-11-19T01:59:30.625Z,0
2016-11-19T02:00:30.606Z,0
2016-11-19T02:01:30.591Z,0
2016-11-19T02:02:30.585Z,0
2016-11-19T02:03:30.578Z,0
2016-11-19T02:04:30.564Z,0
2016-11-19T02:05:30.553Z,0
2016-11-19T02:06:30.542Z,0
2016-11-19T02:07:30.540Z,0
2016-11-19T02:08:30.828Z,0
2016-11-19T02:09:30.512Z,0
2016-11-19T02:10:30.498Z,0
2016-11-19T02:11:30.482Z,0
2016-11-19T02:12:30.489Z,0
2016-11-19T02:13:30.466Z,0
2016-11-19T02:14:30.459Z,0
2016-11-19T02:15:30.443Z,0
2016-11-19T02:16:30.432Z,0
2016-11-19T02:17:30.422Z,0
2016-11-19T02:18:30.415Z,0
2016-11-19T02:19:30.403Z,0
2016-11-19T02:20:30.396Z,0
2016-11-19T02:21:30.377Z,0
2016-11-19T02:22:30.370Z,0
2016-11-19T02:23:30.355Z,0
2016-11-19T02:24:30.345Z,0
2016-11-19T02:25:30.333Z,0
2016-11-19T02:26:30.319Z,0
2016-11-19T02:27:30.317Z,0
2016-11-19T02:28:30.301Z,0
2016-11-19T02:29:30.601Z,0
2016-11-19T02:30:30.291Z,0
2016-11-19T02:31:30.270Z,0
2016-11-19T02:32:30.252Z,0
2016-11-19T02:33:30.242Z,0
2016-11-19T02:34:30.237Z,0
2016-11-19T02:35:30.229Z,0
2016-11-19T02:36:30.212Z,0
2016-11-19T02:37:30.200Z,0
2016-11-19T02:38:30.190Z,0
2016-11-19T02:39:30.210Z,0
2016-11-19T02:40:30.165Z,0
2016-11-19T02:41:30.152Z,0
2016-11-19T02:42:30.145Z,0
2016-11-19T02:43:30.132Z,0
2016-11-19T02:44:30.118Z,0
2016-11-19T02:45:30.113Z,0
2016-11-19T02:46:30.097Z,0
2016-11-19T02:47:30.090Z,0
2016-11-19T02:48:30.078Z,0
2016-11-19T02:49:30.058Z,0
2016-11-19T02:50:30.050Z,0
2016-11-19T02:51:30.038Z,0
2016-11-19T02:52:30.034Z,0
2016-11-19T02:53:30.024Z,0
2016-11-19T02:54:30.006Z,0
2016-11-19T02:55:30.003Z,0
2016-11-19T02:56:29.992Z,0
2016-11-19T02:57:29.979Z,0
2016-11-19T02:58:29.963Z,0
2016-11-19T02:59:29.950Z,0
2016-11-19T03:00:30.247Z,0
2016-11-19T03:01:29.924Z,0
2016-11-19T03:02:29.948Z,0
2016-11-19T03:03:29.905Z,0
2016-11-19T03:04:29.921Z,0
2016-11-19T03:05:29.883Z,0
2016-11-19T03:06:29.878Z,0
2016-11-19T03:07:29.862Z,0
2016-11-19T03:08:29.853Z,0
2016-11-19T03:09:29.833Z,0
2016-11-19T03:10:29.824Z,0
2016-11-19T03:11:29.814Z,0
2016-11-19T03:12:29.833Z,0
2016-11-19T03:13:29.793Z,0
2016-11-19T03:14:29.785Z,0
2016-11-19T03:15:29.766Z,0
2016-11-19T03:16:30.060Z,0
2016-11-19T03:17:30.056Z,0
2016-11-19T03:18:29.736Z,0
2016-11-19T03:19:29.720Z,0
2016-11-19T03:20:29.710Z,0
2016-11-19T03:21:29.701Z,0
2016-11-19T03:22:29.991Z,0
2016-11-19T03:23:29.666Z,0
2016-11-19T03:24:29.662Z,0
2016-11-19T03:25:29.648Z,0
2016-11-19T03:26:29.639Z,0
2016-11-19T03:27:29.622Z,0
2016-11-19T03:28:29.620Z,0
2016-11-19T03:29:29.602Z,0
2016-11-19T03:30:29.593Z,0
2016-11-19T03:31:29.581Z,0
2016-11-19T03:32:29.565Z,0
2016-11-19T03:33:29.563Z,0
2016-11-19T03:34:29.544Z,0
2016-11-19T03:35:29.539Z,0
2016-11-19T03:36:29.518Z,0
2016-11-19T03:37:29.513Z,0
2016-11-19T03:38:29.503Z,0
2016-11-19T03:39:29.488Z,0
2016-11-19T03:40:29.474Z,0
2016-11-19T03:41:29.460Z,0
2016-11-19T03:42:29.453Z,0
2016-11-19T03:43:29.443Z,0
2016-11-19T03:44:29.671Z,0
2016-11-19T03:45:29.416Z,0
2016-11-19T03:46:29.401Z,0
2016-11-19T03:47:29.389Z,0
2016-11-19T03:48:29.380Z,0
2016-11-19T03:49:29.371Z,0
2016-11-19T03:50:29.352Z,0
2016-11-19T03:51:29.349Z,0
2016-11-19T03:52:29.332Z,0
2016-11-19T03:53:29.333Z,0
2016-11-19T03:54:29.305Z,0
2016-11-19T03:55:29.303Z,0
2016-11-19T03:56:29.284Z,0
2016-11-19T03:57:29.278Z,0
2016-11-19T03:58:29.264Z,0
2016-11-19T03:59:29.252Z,0
2016-11-19T04:00:29.243Z,0
2016-11-19T04:01:29.239Z,0
2016-11-19T04:02:29.217Z,0
2016-11-19T04:03:29.206Z,0
2016-11-19T04:04:29.228Z,0
2016-11-19T04:05:29.179Z,0
2016-11-19T04:06:29.172Z,0
2016-11-19T04:07:29.152Z,0
2016-11-19T04:08:29.153Z,0
2016-11-19T04:09:29.165Z,0
2016-11-19T04:10:29.123Z,0
2016-11-19T04:11:29.111Z,0
2016-11-19T04:12:29.100Z,0
2016-11-19T04:13:29.089Z,0
2016-11-19T04:14:29.075Z,0
2016-11-19T04:15:29.072Z,0
2016-11-19T04:16:29.060Z,0
2016-11-19T04:17:29.045Z,0
2016-11-19T04:18:29.031Z,0
2016-11-19T04:19:29.025Z,0
2016-11-19T04:20:29.007Z,0
2016-11-19T04:21:29.301Z,0
2016-11-19T04:22:28.980Z,0
2016-11-19T04:23:28.971Z,0
2016-11-19T04:24:28.960Z,0
2016-11-19T04:25:28.952Z,0
2016-11-19T04:26:28.939Z,0
2016-11-19T04:27:28.930Z,0
2016-11-19T04:28:28.912Z,0
2016-11-19T04:29:28.939Z,0
2016-11-19T04:30:28.892Z,0
2016-11-19T04:31:28.879Z,0
2016-11-19T04:32:28.874Z,0
2016-11-19T04:33:28.854Z,0
2016-11-19T04:34:28.846Z,0
2016-11-19T04:35:28.841Z,0
2016-11-19T04:36:28.827Z,0
2016-11-19T04:37:28.814Z,0
2016-11-19T04:38:28.805Z,0
2016-11-19T04:39:28.785Z,0
2016-11-19T04:40:28.781Z,0
2016-11-19T04:41:29.075Z,0
2016-11-19T04:42:28.753Z,0
2016-11-19T04:43:28.777Z,0
2016-11-19T04:44:28.736Z,0
2016-11-19T04:45:28.721Z,0
2016-11-19T04:46:28.710Z,0
2016-11-19T04:47:28.704Z,0
2016-11-19T04:48:28.691Z,0
2016-11-19T04:49:28.679Z,0
2016-11-19T04:50:28.671Z,0
2016-11-19T04:51:28.659Z,0
2016-11-19T04:52:28.641Z,0
2016-11-19T04:53:28.634Z,0
2016-11-19T04:54:28.623Z,0
2016-11-19T04:55:28.611Z,0
2016-11-19T04:56:28.598Z,0
2016-11-19T04:57:28.586Z,0
2016-11-19T04:58:28.567Z,0
2016-11-19T04:59:28.565Z,0
2016-11-19T05:00:28.550Z,0
2016-11-19T05:01:28.552Z,0
2016-11-19T05:02:28.527Z,0
2016-11-19T05:03:28.515Z,0
2016-11-19T05:04:28.538Z,0
2016-11-19T05:05:28.494Z,0
2016-11-19T05:06:28.476Z,0
2016-11-19T05:07:28.469Z,0
2016-11-19T05:08:28.457Z,0
2016-11-19T05:09:28.449Z,0
2016-11-19T05:10:28.741Z,0
2016-11-19T05:11:28.420Z,0
2016-11-19T05:12:28.721Z,0
2016-11-19T05:13:28.401Z,0
2016-11-19T05:14:28.388Z,0
2016-11-19T05:15:28.376Z,0
2016-11-19T05:16:28.369Z,0
2016-11-19T05:17:28.358Z,0
2016-11-19T05:18:28.346Z,0
2016-11-19T05:19:28.330Z,0
2016-11-19T05:20:28.328Z,0
2016-11-19T05:21:28.305Z,0
2016-11-19T05:22:28.300Z,0
2016-11-19T05:23:28.284Z,0
2016-11-19T05:24:28.271Z,0
2016-11-19T05:25:28.259Z,0
2016-11-19T05:26:28.254Z,0
2016-11-19T05:27:28.239Z,0
2016-11-19T05:28:28.228Z,0
2016-11-19T05:29:28.210Z,0
2016-11-19T05:30:28.202Z,0
2016-11-19T05:31:28.191Z,0
2016-11-19T05:32:28.182Z,0
2016-11-19T05:33:28.168Z,0
2016-11-19T05:34:28.158Z,0
2016-11-19T05:35:28.144Z,0
2016-11-19T05:36:28.137Z,0
2016-11-19T05:37:28.121Z,0
2016-11-19T05:38:28.107Z,0
2016-11-19T05:39:28.103Z,0
2016-11-19T05:40:28.090Z,0
2016-11-19T05:41:28.078Z,0
2016-11-19T05:42:28.064Z,0
2016-11-19T05:43:28.082Z,0
2016-11-19T05:44:28.040Z,0
2016-11-19T05:45:28.035Z,0
2016-11-19T05:46:28.016Z,0
2016-11-19T05:47:28.038Z,0
2016-11-19T05:48:27.994Z,0
2016-11-19T05:49:27.980Z,0
2016-11-19T05:50:27.973Z,0
2016-11-19T05:51:27.956Z,0
2016-11-19T05:52:27.952Z,0
2016-11-19T05:53:27.934Z,0
2016-11-19T05:54:27.922Z,0
2016-11-19T05:55:27.910Z,0
2016-11-19T05:56:27.902Z,0
2016-11-19T05:57:27.886Z,0
2016-11-19T05:58:27.876Z,0
2016-11-19T05:59:27.864Z,0
2016-11-19T06:00:27.887Z,4
2016-11-19T06:01:27.843Z,4
2016-11-19T06:02:27.835Z,4
2016-11-19T06:03:27.820Z,4
2016-11-19T06:04:27.806Z,4
2016-11-19T06:05:27.828Z,4
2016-11-19T06:06:27.786Z,8
2016-11-19T06:07:27.775Z,4
2016-11-19T06:08:27.764Z,8
2016-11-19T06:09:27.751Z,8
2016-11-19T06:10:27.740Z,8
2016-11-19T06:11:27.723Z,12
2016-11-19T06:12:27.709Z,12
2016-11-19T06:13:27.709Z,12
2016-11-19T06:14:27.687Z,16
2016-11-19T06:15:27.679Z,16
2016-11-19T06:16:27.665Z,24
2016-11-19T06:17:27.660Z,28
2016-11-19T06:18:27.646Z,28
2016-11-19T06:19:27.631Z,36
2016-11-19T06:20:27.617Z,40
2016-11-19T06:21:27.612Z,44
2016-11-19T06:22:27.608Z,52
2016-11-19T06:23:27.592Z,60
2016-11-19T06:24:27.608Z,64
2016-11-19T06:25:27.566Z,72
2016-11-19T06:26:27.550Z,84
2016-11-19T06:27:27.539Z,96
2016-11-19T06:28:27.528Z,108
2016-11-19T06:29:27.517Z,116
2016-11-19T06:30:27.507Z,120
2016-11-19T06:31:27.497Z,136
2016-11-19T06:32:27.482Z,148
2016-11-19T06:33:27.469Z,160
2016-11-19T06:34:27.454Z,168
2016-11-19T06:35:27.448Z,176
2016-11-19T06:36:27.473Z,180
2016-11-19T06:37:27.430Z,192
2016-11-19T06:38:27.412Z,200
2016-11-19T06:39:27.427Z,212
2016-11-19T06:40:27.405Z,228
2016-11-19T06:41:27.382Z,244
2016-11-19T06:42:27.397Z,252
2016-11-19T06:43:27.353Z,268
2016-11-19T06:44:27.345Z,280
2016-11-19T06:45:27.339Z,300
2016-11-19T06:46:27.317Z,316
2016-11-19T06:47:27.615Z,348
2016-11-19T06:48:27.305Z,400
2016-11-19T06:49:27.293Z,456
2016-11-19T06:50:27.275Z,508
2016-11-19T06:51:27.270Z,548
2016-11-19T06:52:27.256Z,592
2016-11-19T06:53:27.243Z,628
2016-11-19T06:54:27.234Z,676
2016-11-19T06:55:27.217Z,736
2016-11-19T06:56:27.215Z,816
2016-11-19T06:57:27.198Z,924
2016-11-19T06:58:27.186Z,1036
2016-11-19T06:59:27.177Z,1136
2016-11-19T07:00:27.168Z,1232
2016-11-19T07:01:27.159Z,1308
2016-11-19T07:02:27.145Z,1364
2016-11-19T07:03:27.134Z,1404
2016-11-19T07:04:27.124Z,1440
2016-11-19T07:05:27.113Z,1492
2016-11-19T07:06:27.098Z,1544
2016-11-19T07:07:27.090Z,1600
2016-11-19T07:08:27.073Z,1660
2016-11-19T07:09:27.067Z,1720
2016-11-19T07:10:27.352Z,1788
2016-11-19T07:11:27.048Z,1848
2016-11-19T07:12:27.037Z,1936
2016-11-19T07:13:27.024Z,2028
2016-11-19T07:14:27.047Z,2112
2016-11-19T07:15:26.998Z,2220
2016-11-19T07:16:26.991Z,2312
2016-11-19T07:17:26.988Z,2396
2016-11-19T07:18:26.968Z,2504
2016-11-19T07:19:26.955Z,2584
2016-11-19T07:20:26.950Z,2620
2016-11-19T07:21:26.938Z,2628
2016-11-19T07:22:26.925Z,2620
2016-11-19T07:23:26.918Z,2684
2016-11-19T07:24:27.207Z,2756
2016-11-19T07:25:26.895Z,2772
2016-11-19T07:26:26.884Z,2696
2016-11-19T07:27:26.876Z,2592
2016-11-19T07:28:26.866Z,2516
2016-11-19T07:29:26.856Z,2468
2016-11-19T07:30:26.845Z,2428
2016-11-19T07:31:26.829Z,2396
2016-11-19T07:32:26.837Z,2404
2016-11-19T07:33:26.818Z,2440
2016-11-19T07:34:26.808Z,2488
2016-11-19T07:35:26.789Z,2556
2016-11-19T07:36:26.780Z,2648
2016-11-19T07:37:27.077Z,2756
2016-11-19T07:38:26.765Z,2892
2016-11-19T07:39:26.789Z,3084
2016-11-19T07:40:26.744Z,3220
2016-11-19T07:41:26.728Z,3296
2016-11-19T07:42:26.725Z,3400
2016-11-19T07:43:26.709Z,3512
2016-11-19T07:44:26.707Z,3664
2016-11-19T07:45:26.693Z,3880
2016-11-19T07:46:26.678Z,4044
2016-11-19T07:47:26.666Z,4156
2016-11-19T07:48:26.665Z,4252
2016-11-19T07:49:26.647Z,4320
2016-11-19T07:50:26.639Z,4344
2016-11-19T07:51:26.627Z,4332
2016-11-19T07:52:26.621Z,4308
2016-11-19T07:53:26.615Z,4288
2016-11-19T07:54:26.603Z,4264
2016-11-19T07:55:26.594Z,4304
2016-11-19T07:56:26.581Z,4360
2016-11-19T07:57:26.573Z,4404
2016-11-19T07:58:26.559Z,4408
2016-11-19T07:59:26.555Z,4408
2016-11-19T08:00:26.542Z,4436
2016-11-19T08:01:26.536Z,4480
2016-11-19T08:02:26.525Z,4564
2016-11-19T08:03:26.521Z,4628
2016-11-19T08:04:26.510Z,4612
2016-11-19T08:05:26.503Z,4564
2016-11-19T08:06:26.493Z,4552
2016-11-19T08:07:26.473Z,4604
2016-11-19T08:08:26.473Z,4612
2016-11-19T08:09:26.459Z,4588
2016-11-19T08:10:26.456Z,4520
2016-11-19T08:11:26.440Z,4456
2016-11-19T08:12:26.431Z,4448
2016-11-19T08:13:26.459Z,4448
2016-11-19T08:14:26.413Z,4460
2016-11-19T08:15:26.406Z,4460
2016-11-19T08:16:26.393Z,4444
2016-11-19T08:17:26.382Z,4428
2016-11-19T08:18:26.409Z,4432
2016-11-19T08:19:26.366Z,4432
2016-11-19T08:20:26.359Z,4432
2016-11-19T08:21:26.368Z,4424
2016-11-19T08:22:26.346Z,4412
2016-11-19T08:23:26.326Z,4388
2016-11-19T08:24:26.323Z,4368
2016-11-19T08:25:26.315Z,4336
2016-11-19T08:26:26.313Z,4280
2016-11-19T08:27:26.299Z,4296
2016-11-19T08:28:26.291Z,4328
2016-11-19T08:29:26.275Z,4336
2016-11-19T08:30:26.266Z,4344
2016-11-19T08:31:26.268Z,4348
2016-11-19T08:32:26.251Z,4380
2016-11-19T08:33:26.248Z,4448
2016-11-19T08:34:26.231Z,4524
2016-11-19T08:35:26.220Z,4624
2016-11-19T08:36:26.521Z,4740
2016-11-19T08:37:26.214Z,4800
2016-11-19T08:38:26.195Z,4852
2016-11-19T08:39:26.190Z,4880
2016-11-19T08:40:26.178Z,4912
2016-11-19T08:41:26.168Z,4884
2016-11-19T08:42:26.164Z,4800
2016-11-19T08:43:26.152Z,4820
2016-11-19T08:44:26.142Z,4880
2016-11-19T08:45:26.140Z,4880
2016-11-19T08:46:26.122Z,4884
2016-11-19T08:47:26.118Z,4916
2016-11-19T08:48:26.112Z,5004
2016-11-19T08:49:26.104Z,5100
2016-11-19T08:50:26.091Z,5148
2016-11-19T08:51:26.087Z,5152
2016-11-19T08:52:26.077Z,5140
2016-11-19T08:53:26.071Z,5164
2016-11-19T08:54:26.060Z,5220
2016-11-19T08:55:26.045Z,5220
2016-11-19T08:56:26.067Z,5140
2016-11-19T08:57:26.024Z,5084
2016-11-19T08:58:26.026Z,5100
2016-11-19T08:59:26.012Z,5084
2016-11-19T09:00:26.024Z,5136
2016-11-19T09:01:25.994Z,5240
2016-11-19T09:02:25.989Z,5340
2016-11-19T09:03:25.973Z,5348
2016-11-19T09:04:25.970Z,5308
2016-11-19T09:05:25.966Z,5288
2016-11-19T09:06:25.952Z,5248
2016-11-19T09:07:25.948Z,5220
2016-11-19T09:08:26.239Z,5168
2016-11-19T09:09:25.922Z,5172
2016-11-19T09:10:25.914Z,5224
2016-11-19T09:11:25.903Z,5220
2016-11-19T09:12:25.902Z,5184
2016-11-19T09:13:25.918Z,5160
2016-11-19T09:14:25.890Z,5116
2016-11-19T09:15:25.866Z,4828
2016-11-19T09:16:26.271Z,4456
2016-11-19T09:17:25.857Z,4260
2016-11-19T09:18:25.842Z,4212
2016-11-19T09:19:26.149Z,4292
2016-11-19T09:20:25.850Z,4268
2016-11-19T09:21:25.823Z,4148
2016-11-19T09:22:25.815Z,4064
2016-11-19T09:23:25.804Z,4176
2016-11-19T09:24:25.803Z,4344
2016-11-19T09:25:25.784Z,4300
2016-11-19T09:26:25.786Z,4464
2016-11-19T09:27:25.775Z,4600
2016-11-19T09:28:25.761Z,4488
2016-11-19T09:29:25.763Z,4436
2016-11-19T09:30:25.750Z,4300
2016-11-19T09:31:25.733Z,4164
2016-11-19T09:32:25.734Z,4172
2016-11-19T09:33:26.026Z,4172
2016-11-19T09:34:25.715Z,4180
2016-11-19T09:35:25.705Z,4324
2016-11-19T09:36:25.995Z,4304
2016-11-19T09:37:25.688Z,4212
2016-11-19T09:38:25.686Z,4216
2016-11-19T09:39:25.676Z,4360
2016-11-19T09:40:25.661Z,4272
2016-11-19T09:41:25.650Z,4156
2016-11-19T09:42:25.646Z,4284
2016-11-19T09:43:25.632Z,4428
2016-11-19T09:44:25.631Z,4604
2016-11-19T09:45:25.627Z,4716
2016-11-19T09:46:25.606Z,4836
2016-11-19T09:47:25.602Z,4812
2016-11-19T09:48:25.592Z,4552
2016-11-19T09:49:25.589Z,4588
2016-11-19T09:50:25.583Z,4532
2016-11-19T09:51:25.576Z,4600
2016-11-19T09:52:25.557Z,4896
2016-11-19T09:53:25.554Z,4896
2016-11-19T09:54:25.543Z,4636
2016-11-19T09:55:25.538Z,4580
2016-11-19T09:56:25.568Z,4748
2016-11-19T09:57:25.522Z,4728
2016-11-19T09:58:25.513Z,4828
2016-11-19T09:59:25.807Z,5008
2016-11-19T10:00:25.501Z,4740
2016-11-19T10:01:25.490Z,4348
2016-11-19T10:02:25.478Z,4460
2016-11-19T10:03:25.470Z,4636
2016-11-19T10:04:25.458Z,4748
2016-11-19T10:05:25.459Z,4884
2016-11-19T10:06:25.448Z,4976
2016-11-19T10:07:25.443Z,4996
2016-11-19T10:08:25.428Z,5040
2016-11-19T10:09:25.421Z,5084
2016-11-19T10:10:25.412Z,5196
2016-11-19T10:11:25.402Z,5292
2016-11-19T10:12:25.418Z,5300
2016-11-19T10:13:25.389Z,5420
2016-11-19T10:14:25.375Z,5748
2016-11-19T10:15:25.383Z,6020
2016-11-19T10:16:25.360Z,6240
2016-11-19T10:17:25.353Z,6420
2016-11-19T10:18:25.369Z,6544
2016-11-19T10:19:25.331Z,6672
2016-11-19T10:20:25.330Z,6784
2016-11-19T10:21:25.624Z,6712
2016-11-19T10:22:25.313Z,6560
2016-11-19T10:23:25.304Z,6508
2016-11-19T10:24:25.604Z,6592
2016-11-19T10:25:25.587Z,6716
2016-11-19T10:26:25.285Z,6896
2016-11-19T10:27:25.273Z,7120
2016-11-19T10:28:25.566Z,7240
2016-11-19T10:29:25.265Z,7168
2016-11-19T10:30:25.253Z,6968
2016-11-19T10:31:25.245Z,6784
2016-11-19T10:32:25.240Z,6688
2016-11-19T10:33:25.226Z,6636
2016-11-19T10:34:25.216Z,6588
2016-11-19T10:35:25.212Z,6608
2016-11-19T10:36:25.505Z,6688
2016-11-19T10:37:25.197Z,6700
2016-11-19T10:38:25.189Z,6600
2016-11-19T10:39:25.179Z,6508
2016-11-19T10:40:25.176Z,6472
2016-11-19T10:41:25.163Z,6432
2016-11-19T10:42:25.158Z,6408
2016-11-19T10:43:25.153Z,6364
2016-11-19T10:44:25.138Z,6296
2016-11-19T10:45:25.131Z,6280
2016-11-19T10:46:25.130Z,6388
2016-11-19T10:47:25.112Z,6584
2016-11-19T10:48:25.113Z,6664
2016-11-19T10:49:25.099Z,6700
2016-11-19T10:50:25.093Z,6752
2016-11-19T10:51:25.118Z,6884
2016-11-19T10:52:25.082Z,6964
2016-11-19T10:53:25.071Z,6964
2016-11-19T10:54:25.069Z,6948
2016-11-19T10:55:25.059Z,6788
2016-11-19T10:56:25.050Z,6540
2016-11-19T10:57:25.040Z,6400
2016-11-19T10:58:25.039Z,6352
2016-11-19T10:59:25.029Z,6304
2016-11-19T11:00:25.019Z,6216
2016-11-19T11:01:25.004Z,6128
2016-11-19T11:02:25.000Z,6032
2016-11-19T11:03:24.996Z,6024
2016-11-19T11:04:24.984Z,6192
2016-11-19T11:05:24.981Z,6400
2016-11-19T11:06:24.972Z,6496
2016-11-19T11:07:24.962Z,6424
2016-11-19T11:08:24.951Z,6380
2016-11-19T11:09:24.948Z,6476
2016-11-19T11:10:24.936Z,6560
2016-11-19T11:11:24.930Z,6684
2016-11-19T11:12:24.928Z,6784
2016-11-19T11:13:24.915Z,6784
2016-11-19T11:14:24.913Z,6704
2016-11-19T11:15:24.907Z,6592
2016-11-19T11:16:24.904Z,6392
2016-11-19T11:17:24.884Z,6276
2016-11-19T11:18:24.875Z,6364
2016-11-19T11:19:25.177Z,6544
2016-11-19T11:20:24.868Z,6468
2016-11-19T11:21:24.856Z,6388
2016-11-19T11:22:24.850Z,6572
2016-11-19T11:23:24.856Z,6660
2016-11-19T11:24:24.837Z,6636
2016-11-19T11:25:24.831Z,6780
2016-11-19T11:26:24.821Z,6952
2016-11-19T11:27:24.811Z,6984
2016-11-19T11:28:25.107Z,6848
2016-11-19T11:29:24.802Z,6764
2016-11-19T11:30:24.791Z,6600
2016-11-19T11:31:24.784Z,6424
2016-11-19T11:32:24.801Z,6308
2016-11-19T11:33:24.768Z,6364
2016-11-19T11:34:24.764Z,6372
2016-11-19T11:35:24.751Z,6360
2016-11-19T11:36:24.749Z,6448
2016-11-19T11:37:24.739Z,6396
2016-11-19T11:38:25.042Z,6280
2016-11-19T11:39:24.722Z,6244
2016-11-19T11:40:24.728Z,6264
2016-11-19T11:41:24.707Z,6000
2016-11-19T11:42:24.697Z,5584
2016-11-19T11:43:24.692Z,5336
2016-11-19T11:44:24.685Z,5164
2016-11-19T11:45:24.979Z,5148
2016-11-19T11:46:24.873Z,5208
2016-11-19T11:47:24.673Z,5260
2016-11-19T11:48:24.661Z,5292
2016-11-19T11:49:24.956Z,5276
2016-11-19T11:50:24.651Z,5232
2016-11-19T11:51:24.646Z,5188
2016-11-19T11:52:24.632Z,5176
2016-11-19T11:53:24.616Z,5116
2016-11-19T11:54:24.617Z,4864
2016-11-19T11:55:24.601Z,4560
2016-11-19T11:56:24.609Z,4428
2016-11-19T11:57:24.587Z,4300
2016-11-19T11:58:24.588Z,4112
2016-11-19T11:59:24.579Z,3900
2016-11-19T12:00:24.576Z,3704
2016-11-19T12:01:24.561Z,3732
2016-11-19T12:02:24.556Z,3736
2016-11-19T12:03:24.875Z,3712
2016-11-19T12:04:24.543Z,3720
2016-11-19T12:05:24.560Z,3784
2016-11-19T12:06:24.522Z,3828
2016-11-19T12:07:24.819Z,3924
2016-11-19T12:08:24.512Z,3980
2016-11-19T12:09:24.503Z,3996
2016-11-19T12:10:24.495Z,3888
2016-11-19T12:11:24.494Z,3772
2016-11-19T12:12:24.478Z,3732
2016-11-19T12:13:24.476Z,3772
2016-11-19T12:14:24.490Z,3800
2016-11-19T12:15:24.467Z,3728
2016-11-19T12:16:24.442Z,3600
2016-11-19T12:17:24.446Z,3436
2016-11-19T12:18:24.440Z,3324
2016-11-19T12:19:24.428Z,3316
2016-11-19T12:20:24.422Z,3356
2016-11-19T12:21:24.416Z,3520
2016-11-19T12:22:24.406Z,3692
2016-11-19T12:23:24.698Z,3800
2016-11-19T12:24:24.399Z,3888
2016-11-19T12:25:24.381Z,4024
2016-11-19T12:26:24.373Z,4236
2016-11-19T12:27:24.369Z,4556
2016-11-19T12:28:24.365Z,4756
2016-11-19T12:29:24.354Z,4680
2016-11-19T12:30:24.350Z,4652
2016-11-19T12:31:24.338Z,4624
2016-11-19T12:32:24.333Z,4580
2016-11-19T12:33:24.323Z,4516
2016-11-19T12:34:24.319Z,4400
2016-11-19T12:35:24.328Z,4332
2016-11-19T12:36:24.305Z,4268
2016-11-19T12:37:24.294Z,4356
2016-11-19T12:38:24.294Z,4472
2016-11-19T12:39:24.277Z,4536
2016-11-19T12:40:24.277Z,4604
2016-11-19T12:41:24.275Z,4676
2016-11-19T12:42:24.256Z,4752
2016-11-19T12:43:24.246Z,4720
2016-11-19T12:44:24.243Z,4656
2016-11-19T12:45:24.241Z,4612
2016-11-19T12:46:24.229Z,4492
2016-11-19T12:47:24.223Z,4376
2016-11-19T12:48:24.211Z,4316
2016-11-19T12:49:24.215Z,4280
2016-11-19T12:50:24.199Z,4204
2016-11-19T12:51:24.192Z,4088
2016-11-19T12:52:24.183Z,3988
2016-11-19T12:53:24.185Z,3896
2016-11-19T12:54:24.484Z,3884
2016-11-19T12:55:24.165Z,3956
2016-11-19T12:56:24.180Z,4024
2016-11-19T12:57:24.149Z,4044
2016-11-19T12:58:24.146Z,4000
2016-11-19T12:59:24.137Z,3964
2016-11-19T13:00:24.127Z,3932
2016-11-19T13:01:24.426Z,3860
2016-11-19T13:02:24.123Z,3700
2016-11-19T13:03:24.103Z,3520
2016-11-19T13:04:24.109Z,3352
2016-11-19T13:05:24.094Z,3148
2016-11-19T13:06:24.095Z,2960
2016-11-19T13:07:24.078Z,2832
2016-11-19T13:08:24.071Z,2688
2016-11-19T13:09:24.063Z,2480
2016-11-19T13:10:24.050Z,2348
2016-11-19T13:11:24.048Z,2356
2016-11-19T13:12:24.040Z,2488
2016-11-19T13:13:24.031Z,2632
2016-11-19T13:14:24.025Z,2684
2016-11-19T13:15:24.023Z,2672
2016-11-19T13:16:24.009Z,2676
2016-11-19T13:17:24.004Z,2728
2016-11-19T13:18:23.997Z,2824
2016-11-19T13:19:23.987Z,2888
2016-11-19T13:20:23.985Z,2852
2016-11-19T13:21:23.973Z,2788
2016-11-19T13:22:23.971Z,2732
2016-11-19T13:23:23.962Z,2688
2016-11-19T13:24:23.949Z,2672
2016-11-19T13:25:23.945Z,2684
2016-11-19T13:26:23.936Z,2712
2016-11-19T13:27:23.931Z,2816
2016-11-19T13:28:24.231Z,2920
2016-11-19T13:29:23.922Z,2852
2016-11-19T13:30:23.910Z,2624
2016-11-19T13:31:23.903Z,2352
2016-11-19T13:32:23.896Z,2164
2016-11-19T13:33:23.888Z,2076
2016-11-19T13:34:23.905Z,2084
2016-11-19T13:35:23.870Z,2148
2016-11-19T13:36:23.865Z,2216
2016-11-19T13:37:23.855Z,2268
2016-11-19T13:38:23.853Z,2376
2016-11-19T13:39:23.844Z,2444
2016-11-19T13:40:23.836Z,2400
2016-11-19T13:41:23.831Z,2248
2016-11-19T13:42:23.825Z,2044
2016-11-19T13:43:23.811Z,1992
2016-11-19T13:44:23.810Z,1900
2016-11-19T13:45:23.796Z,1764
2016-11-19T13:46:23.791Z,1628
2016-11-19T13:47:23.781Z,1492
2016-11-19T13:48:23.782Z,1428
2016-11-19T13:49:23.801Z,1368
2016-11-19T13:50:23.764Z,1260
2016-11-19T13:51:23.752Z,1172
2016-11-19T13:52:23.742Z,1156
2016-11-19T13:53:23.738Z,1116
2016-11-19T13:54:23.733Z,1012
2016-11-19T13:55:23.722Z,872
2016-11-19T13:56:23.718Z,716
2016-11-19T13:57:23.707Z,620